Crane Naval Depot, Indiana
Current Conditions -  °F | °C
As of 5:15 PM on Monday 22 Dec 2014 (Local Time) from KDCY Reporting Station
Overcast Overcast  
Wind Chill: 41°   Ceiling: 2200
Heat Index: 46°   Visibility: 10mi
Dew Point: 43°   Wind: 12mph
Humidity: 87%   Direction: 140°SE
Pressure: 29.67"   Gusts: NA
Location:  38.8381°N, 86.8142°W
Report Text: KDCY 222315Z AUTO 14010KT 10SM OVC022 08/06 A2967 RMK AO2 T00800060
Loading
Personal Weather Stations






























Interactive Weather Map New forecast layout! Learn more

10-Day Weather Forecast

Advertisements
Track Severe Weather on mobile